Mineral Point, Missouri
Current Conditions -  °F | °C
As of 10:35 AM on Saturday 22 Nov 2014 (Local Time) from KFAM Reporting Station
Overcast Overcast  
Wind Chill: 54°   Ceiling: 4900
Heat Index: 54°   Visibility: 10mi
Dew Point: 46°   Wind: 15mph
Humidity: 77%   Direction: 140°SE
Pressure: 30.15"   Gusts: NA
Location:  37.94°N, 90.72°W
Report Text: KFAM 221635Z AUTO 14013KT 10SM SCT040 BKN049 OVC055 12/08 A3015 RMK AO1
Loading
Personal Weather Stations






























Interactive Weather Map New forecast layout! Learn more

10-Day Weather Forecast

Advertisements
Track Severe Weather on mobile